Astroworld, Texas
Current Conditions -  °F | °C
As of 2:15 AM on Thursday 29 Jan 2015 (Local Time) from KMCJ Reporting Station
Clear Clear  
Wind Chill: 15°   Ceiling: Unl
Heat Index: 15°   Visibility: 10mi
Dew Point: 15°   Wind: 6mph
Humidity: 100%   Direction: 190°S
Pressure: 30.14"   Gusts: NA
Location:  29.6867°N, 95.4345°W
Report Text: KMCJ 290815Z AUTO 19005KT 10SM CLR 15/15 A3014 RMK AO1
Loading
Personal Weather Stations






























Interactive Weather Map New forecast layout! Learn more

10-Day Weather Forecast

Advertisements
Track Severe Weather on mobile